sensor_id;sensor_type;location;lat;lon;timestamp;temperature;humidity
74155;DHT22;62509;46.248;6.018;2023-07-31T00:01:11;15.00;64.10
74155;DHT22;62509;46.248;6.018;2023-07-31T00:06:15;15.10;63.30
74155;DHT22;62509;46.248;6.018;2023-07-31T00:11:19;15.10;63.40
74155;DHT22;62509;46.248;6.018;2023-07-31T00:16:22;15.10;63.70
74155;DHT22;62509;46.248;6.018;2023-07-31T00:21:26;15.00;63.70
74155;DHT22;62509;46.248;6.018;2023-07-31T00:26:30;14.90;63.70
74155;DHT22;62509;46.248;6.018;2023-07-31T00:31:34;14.80;64.50
74155;DHT22;62509;46.248;6.018;2023-07-31T00:36:37;14.90;64.30
74155;DHT22;62509;46.248;6.018;2023-07-31T00:41:42;14.80;64.50
74155;DHT22;62509;46.248;6.018;2023-07-31T00:46:45;14.50;66.60
74155;DHT22;62509;46.248;6.018;2023-07-31T00:51:48;14.40;67.70
74155;DHT22;62509;46.248;6.018;2023-07-31T00:56:53;14.50;67.20
74155;DHT22;62509;46.248;6.018;2023-07-31T01:01:57;14.30;67.30
74155;DHT22;62509;46.248;6.018;2023-07-31T01:07:01;13.90;69.70
74155;DHT22;62509;46.248;6.018;2023-07-31T01:12:12;14.10;68.90
74155;DHT22;62509;46.248;6.018;2023-07-31T01:17:17;14.10;68.90
74155;DHT22;62509;46.248;6.018;2023-07-31T01:22:30;14.20;68.50
74155;DHT22;62509;46.248;6.018;2023-07-31T01:27:44;13.90;69.10
74155;DHT22;62509;46.248;6.018;2023-07-31T01:32:50;14.00;68.80
74155;DHT22;62509;46.248;6.018;2023-07-31T01:37:55;13.90;69.60
74155;DHT22;62509;46.248;6.018;2023-07-31T01:43:00;13.90;69.70
74155;DHT22;62509;46.248;6.018;2023-07-31T01:48:03;14.00;68.80
74155;DHT22;62509;46.248;6.018;2023-07-31T01:53:06;14.10;68.10
74155;DHT22;62509;46.248;6.018;2023-07-31T01:58:11;13.80;69.60
74155;DHT22;62509;46.248;6.018;2023-07-31T02:03:14;13.70;70.70
74155;DHT22;62509;46.248;6.018;2023-07-31T02:08:18;13.90;69.10
74155;DHT22;62509;46.248;6.018;2023-07-31T02:13:22;13.80;69.80
74155;DHT22;62509;46.248;6.018;2023-07-31T02:18:26;13.70;69.70
74155;DHT22;62509;46.248;6.018;2023-07-31T02:23:29;13.70;69.70
74155;DHT22;62509;46.248;6.018;2023-07-31T02:28:34;13.80;69.10
74155;DHT22;62509;46.248;6.018;2023-07-31T02:33:37;14.00;68.30
74155;DHT22;62509;46.248;6.018;2023-07-31T02:38:40;13.80;69.10
74155;DHT22;62509;46.248;6.018;2023-07-31T02:43:45;13.70;69.10
74155;DHT22;62509;46.248;6.018;2023-07-31T02:48:48;13.40;71.50
74155;DHT22;62509;46.248;6.018;2023-07-31T02:53:51;13.00;73.50
74155;DHT22;62509;46.248;6.018;2023-07-31T02:58:56;13.20;73.10
74155;DHT22;62509;46.248;6.018;2023-07-31T03:03:59;13.20;72.80
74155;DHT22;62509;46.248;6.018;2023-07-31T03:09:03;13.40;71.60
74155;DHT22;62509;46.248;6.018;2023-07-31T03:14:07;13.30;72.30
74155;DHT22;62509;46.248;6.018;2023-07-31T03:19:10;13.40;71.30
74155;DHT22;62509;46.248;6.018;2023-07-31T03:24:14;12.80;74.30
74155;DHT22;62509;46.248;6.018;2023-07-31T03:29:19;13.10;72.60
74155;DHT22;62509;46.248;6.018;2023-07-31T03:34:25;13.20;71.30
74155;DHT22;62509;46.248;6.018;2023-07-31T03:39:28;13.10;71.30
74155;DHT22;62509;46.248;6.018;2023-07-31T03:44:33;13.20;70.30
74155;DHT22;62509;46.248;6.018;2023-07-31T03:49:36;13.20;70.80
74155;DHT22;62509;46.248;6.018;2023-07-31T03:54:40;12.90;73.60
74155;DHT22;62509;46.248;6.018;2023-07-31T03:59:44;12.80;73.80
74155;DHT22;62509;46.248;6.018;2023-07-31T04:04:48;12.60;75.50
74155;DHT22;62509;46.248;6.018;2023-07-31T04:09:51;13.00;73.40
74155;DHT22;62509;46.248;6.018;2023-07-31T04:14:56;13.00;72.80
74155;DHT22;62509;46.248;6.018;2023-07-31T04:19:59;12.70;74.30
74155;DHT22;62509;46.248;6.018;2023-07-31T04:25:02;12.80;73.00
74155;DHT22;62509;46.248;6.018;2023-07-31T04:30:08;12.40;75.00
74155;DHT22;62509;46.248;6.018;2023-07-31T04:35:11;12.50;75.00
74155;DHT22;62509;46.248;6.018;2023-07-31T04:40:15;12.50;74.40
74155;DHT22;62509;46.248;6.018;2023-07-31T04:45:20;12.40;75.10
74155;DHT22;62509;46.248;6.018;2023-07-31T04:50:23;12.70;74.40
74155;DHT22;62509;46.248;6.018;2023-07-31T04:55:26;12.80;73.00
74155;DHT22;62509;46.248;6.018;2023-07-31T05:00:31;13.00;72.40
74155;DHT22;62509;46.248;6.018;2023-07-31T05:05:34;13.30;70.80
74155;DHT22;62509;46.248;6.018;2023-07-31T05:10:38;13.60;67.90
74155;DHT22;62509;46.248;6.018;2023-07-31T05:15:42;14.50;64.70
74155;DHT22;62509;46.248;6.018;2023-07-31T05:20:46;14.30;64.90
74155;DHT22;62509;46.248;6.018;2023-07-31T05:25:49;14.20;65.20
74155;DHT22;62509;46.248;6.018;2023-07-31T05:30:54;14.70;63.60
74155;DHT22;62509;46.248;6.018;2023-07-31T05:36:02;14.70;63.10
74155;DHT22;62509;46.248;6.018;2023-07-31T05:41:05;14.90;63.20
74155;DHT22;62509;46.248;6.018;2023-07-31T05:46:10;16.70;55.60
74155;DHT22;62509;46.248;6.018;2023-07-31T05:51:13;17.60;51.80
74155;DHT22;62509;46.248;6.018;2023-07-31T05:56:17;17.40;52.80
74155;DHT22;62509;46.248;6.018;2023-07-31T06:01:21;18.50;48.70
74155;DHT22;62509;46.248;6.018;2023-07-31T06:06:25;19.50;45.00
74155;DHT22;62509;46.248;6.018;2023-07-31T06:11:28;20.60;42.30
74155;DHT22;62509;46.248;6.018;2023-07-31T06:16:33;24.40;32.60
74155;DHT22;62509;46.248;6.018;2023-07-31T06:21:36;27.70;26.40
74155;DHT22;62509;46.248;6.018;2023-07-31T06:26:39;28.00;25.70
74155;DHT22;62509;46.248;6.018;2023-07-31T06:31:45;21.50;36.80
74155;DHT22;62509;46.248;6.018;2023-07-31T06:36:48;19.80;41.90
74155;DHT22;62509;46.248;6.018;2023-07-31T06:41:51;18.90;47.10
74155;DHT22;62509;46.248;6.018;2023-07-31T06:46:56;19.10;45.80
74155;DHT22;62509;46.248;6.018;2023-07-31T06:51:59;19.50;44.90
74155;DHT22;62509;46.248;6.018;2023-07-31T06:57:03;19.60;43.70
74155;DHT22;62509;46.248;6.018;2023-07-31T07:02:08;19.60;43.70
74155;DHT22;62509;46.248;6.018;2023-07-31T07:07:11;19.70;43.30
74155;DHT22;62509;46.248;6.018;2023-07-31T07:12:14;19.90;40.30
74155;DHT22;62509;46.248;6.018;2023-07-31T07:17:19;19.90;41.00
74155;DHT22;62509;46.248;6.018;2023-07-31T07:22:22;20.10;38.70
74155;DHT22;62509;46.248;6.018;2023-07-31T07:27:26;19.70;39.80
74155;DHT22;62509;46.248;6.018;2023-07-31T07:32:30;19.60;40.30
74155;DHT22;62509;46.248;6.018;2023-07-31T07:37:34;19.90;40.70
74155;DHT22;62509;46.248;6.018;2023-07-31T07:42:37;20.10;39.20
74155;DHT22;62509;46.248;6.018;2023-07-31T07:47:42;20.20;38.90
74155;DHT22;62509;46.248;6.018;2023-07-31T07:52:45;20.00;40.20
74155;DHT22;62509;46.248;6.018;2023-07-31T07:57:48;20.30;39.70
74155;DHT22;62509;46.248;6.018;2023-07-31T08:02:57;20.60;39.50
74155;DHT22;62509;46.248;6.018;2023-07-31T08:08:00;20.80;38.80
74155;DHT22;62509;46.248;6.018;2023-07-31T08:13:04;20.70;38.00
74155;DHT22;62509;46.248;6.018;2023-07-31T08:18:08;20.80;37.50
74155;DHT22;62509;46.248;6.018;2023-07-31T08:23:13;21.10;37.10
74155;DHT22;62509;46.248;6.018;2023-07-31T08:28:16;21.20;36.10
74155;DHT22;62509;46.248;6.018;2023-07-31T08:33:21;21.20;35.00
74155;DHT22;62509;46.248;6.018;2023-07-31T08:38:25;22.10;33.70
74155;DHT22;62509;46.248;6.018;2023-07-31T08:43:29;22.50;31.90
74155;DHT22;62509;46.248;6.018;2023-07-31T08:48:34;22.70;31.50
74155;DHT22;62509;46.248;6.018;2023-07-31T08:53:38;22.60;31.40
74155;DHT22;62509;46.248;6.018;2023-07-31T08:58:42;22.50;31.70
74155;DHT22;62509;46.248;6.018;2023-07-31T09:03:47;22.60;31.40
74155;DHT22;62509;46.248;6.018;2023-07-31T09:08:50;22.60;32.20
74155;DHT22;62509;46.248;6.018;2023-07-31T09:13:54;22.80;32.10
74155;DHT22;62509;46.248;6.018;2023-07-31T09:19:00;22.60;32.00
74155;DHT22;62509;46.248;6.018;2023-07-31T09:24:05;22.40;32.30
74155;DHT22;62509;46.248;6.018;2023-07-31T09:29:18;22.10;34.00
74155;DHT22;62509;46.248;6.018;2023-07-31T09:34:28;21.70;34.30
74155;DHT22;62509;46.248;6.018;2023-07-31T09:39:32;21.90;34.50
74155;DHT22;62509;46.248;6.018;2023-07-31T09:44:48;22.10;33.00
74155;DHT22;62509;46.248;6.018;2023-07-31T09:49:53;22.20;32.20
74155;DHT22;62509;46.248;6.018;2023-07-31T09:54:56;22.10;32.50
74155;DHT22;62509;46.248;6.018;2023-07-31T09:59:59;22.50;31.80
74155;DHT22;62509;46.248;6.018;2023-07-31T10:05:10;22.50;31.60
74155;DHT22;62509;46.248;6.018;2023-07-31T10:10:17;22.80;31.40
74155;DHT22;62509;46.248;6.018;2023-07-31T10:15:23;23.40;29.30
74155;DHT22;62509;46.248;6.018;2023-07-31T10:20:28;23.40;27.60
74155;DHT22;62509;46.248;6.018;2023-07-31T10:25:32;23.10;29.40
74155;DHT22;62509;46.248;6.018;2023-07-31T10:30:36;23.90;28.90
74155;DHT22;62509;46.248;6.018;2023-07-31T10:35:45;24.40;27.90
74155;DHT22;62509;46.248;6.018;2023-07-31T10:41:07;24.60;27.70
74155;DHT22;62509;46.248;6.018;2023-07-31T10:46:11;24.20;28.70
74155;DHT22;62509;46.248;6.018;2023-07-31T10:51:16;24.50;28.50
74155;DHT22;62509;46.248;6.018;2023-07-31T10:56:24;24.60;28.50
74155;DHT22;62509;46.248;6.018;2023-07-31T11:06:57;24.50;28.60
74155;DHT22;62509;46.248;6.018;2023-07-31T11:12:02;24.50;28.80
74155;DHT22;62509;46.248;6.018;2023-07-31T11:17:06;24.10;29.50
74155;DHT22;62509;46.248;6.018;2023-07-31T11:22:11;24.20;29.60
74155;DHT22;62509;46.248;6.018;2023-07-31T11:27:14;24.70;29.00
74155;DHT22;62509;46.248;6.018;2023-07-31T11:32:18;24.30;29.30
74155;DHT22;62509;46.248;6.018;2023-07-31T11:37:22;24.70;29.60
74155;DHT22;62509;46.248;6.018;2023-07-31T11:42:26;25.20;28.70
74155;DHT22;62509;46.248;6.018;2023-07-31T11:47:29;25.50;28.00
74155;DHT22;62509;46.248;6.018;2023-07-31T11:52:38;25.80;27.70
74155;DHT22;62509;46.248;6.018;2023-07-31T11:57:43;25.80;27.20
74155;DHT22;62509;46.248;6.018;2023-07-31T12:02:48;25.80;27.60
74155;DHT22;62509;46.248;6.018;2023-07-31T12:07:54;26.00;27.40
74155;DHT22;62509;46.248;6.018;2023-07-31T12:13:02;25.80;27.20
74155;DHT22;62509;46.248;6.018;2023-07-31T12:18:07;25.50;27.20
74155;DHT22;62509;46.248;6.018;2023-07-31T12:23:16;25.80;27.70
74155;DHT22;62509;46.248;6.018;2023-07-31T12:28:22;26.20;26.30
74155;DHT22;62509;46.248;6.018;2023-07-31T12:33:30;26.30;26.20
74155;DHT22;62509;46.248;6.018;2023-07-31T12:38:35;26.30;25.60
74155;DHT22;62509;46.248;6.018;2023-07-31T12:43:40;26.00;26.00
74155;DHT22;62509;46.248;6.018;2023-07-31T12:48:44;26.50;24.70
74155;DHT22;62509;46.248;6.018;2023-07-31T12:53:48;26.70;24.80
74155;DHT22;62509;46.248;6.018;2023-07-31T12:58:51;26.70;24.30
74155;DHT22;62509;46.248;6.018;2023-07-31T13:03:55;26.80;24.00
74155;DHT22;62509;46.248;6.018;2023-07-31T13:09:00;26.80;24.10
74155;DHT22;62509;46.248;6.018;2023-07-31T13:14:06;27.10;24.30
74155;DHT22;62509;46.248;6.018;2023-07-31T13:19:09;27.10;24.20
74155;DHT22;62509;46.248;6.018;2023-07-31T13:24:14;27.20;24.20
74155;DHT22;62509;46.248;6.018;2023-07-31T13:29:17;27.10;24.10
74155;DHT22;62509;46.248;6.018;2023-07-31T13:34:20;27.20;23.90
74155;DHT22;62509;46.248;6.018;2023-07-31T13:39:25;26.90;23.80
74155;DHT22;62509;46.248;6.018;2023-07-31T13:44:28;27.00;24.30
74155;DHT22;62509;46.248;6.018;2023-07-31T13:49:32;27.30;24.00
74155;DHT22;62509;46.248;6.018;2023-07-31T13:54:37;27.50;23.60
74155;DHT22;62509;46.248;6.018;2023-07-31T13:59:40;27.50;23.20
74155;DHT22;62509;46.248;6.018;2023-07-31T14:04:43;27.40;23.80
74155;DHT22;62509;46.248;6.018;2023-07-31T14:09:48;27.70;23.50
74155;DHT22;62509;46.248;6.018;2023-07-31T14:14:51;27.70;23.80
74155;DHT22;62509;46.248;6.018;2023-07-31T14:19:55;27.50;23.50
74155;DHT22;62509;46.248;6.018;2023-07-31T14:25:00;27.70;24.10
74155;DHT22;62509;46.248;6.018;2023-07-31T14:30:04;27.60;23.90
74155;DHT22;62509;46.248;6.018;2023-07-31T14:35:08;28.00;23.10
74155;DHT22;62509;46.248;6.018;2023-07-31T14:40:13;27.90;23.70
74155;DHT22;62509;46.248;6.018;2023-07-31T14:45:16;27.80;23.80
74155;DHT22;62509;46.248;6.018;2023-07-31T14:50:20;27.90;23.50
74155;DHT22;62509;46.248;6.018;2023-07-31T14:55:26;28.20;22.50
74155;DHT22;62509;46.248;6.018;2023-07-31T15:00:29;28.10;22.10
74155;DHT22;62509;46.248;6.018;2023-07-31T15:05:33;28.20;22.50
74155;DHT22;62509;46.248;6.018;2023-07-31T15:10:37;28.40;22.00
74155;DHT22;62509;46.248;6.018;2023-07-31T15:15:41;28.40;21.50
74155;DHT22;62509;46.248;6.018;2023-07-31T15:20:44;28.30;21.80
74155;DHT22;62509;46.248;6.018;2023-07-31T15:25:49;28.30;21.90
74155;DHT22;62509;46.248;6.018;2023-07-31T15:30:52;28.40;20.40
74155;DHT22;62509;46.248;6.018;2023-07-31T15:35:55;28.30;19.90
74155;DHT22;62509;46.248;6.018;2023-07-31T15:41:00;28.40;19.60
74155;DHT22;62509;46.248;6.018;2023-07-31T15:46:05;28.40;19.90
74155;DHT22;62509;46.248;6.018;2023-07-31T15:51:08;28.40;20.20
74155;DHT22;62509;46.248;6.018;2023-07-31T15:56:13;28.40;19.70
74155;DHT22;62509;46.248;6.018;2023-07-31T16:01:16;28.30;20.20
74155;DHT22;62509;46.248;6.018;2023-07-31T16:06:20;28.20;20.00
74155;DHT22;62509;46.248;6.018;2023-07-31T16:11:24;28.30;21.40
74155;DHT22;62509;46.248;6.018;2023-07-31T16:16:28;28.40;20.80
74155;DHT22;62509;46.248;6.018;2023-07-31T16:21:31;28.30;21.20
74155;DHT22;62509;46.248;6.018;2023-07-31T16:26:36;28.40;21.10
74155;DHT22;62509;46.248;6.018;2023-07-31T16:31:39;28.40;21.20
74155;DHT22;62509;46.248;6.018;2023-07-31T16:36:57;28.30;21.20
74155;DHT22;62509;46.248;6.018;2023-07-31T16:42:02;28.20;21.30
74155;DHT22;62509;46.248;6.018;2023-07-31T16:47:05;28.20;21.40
74155;DHT22;62509;46.248;6.018;2023-07-31T16:52:09;28.10;21.90
74155;DHT22;62509;46.248;6.018;2023-07-31T16:57:13;28.00;22.10
74155;DHT22;62509;46.248;6.018;2023-07-31T17:02:17;27.80;22.30
74155;DHT22;62509;46.248;6.018;2023-07-31T17:07:20;27.60;22.40
74155;DHT22;62509;46.248;6.018;2023-07-31T17:12:25;27.50;23.00
74155;DHT22;62509;46.248;6.018;2023-07-31T17:17:28;27.50;23.20
74155;DHT22;62509;46.248;6.018;2023-07-31T17:22:32;27.50;23.10
74155;DHT22;62509;46.248;6.018;2023-07-31T17:27:50;27.40;23.50
74155;DHT22;62509;46.248;6.018;2023-07-31T17:32:55;27.10;24.10
74155;DHT22;62509;46.248;6.018;2023-07-31T17:37:58;27.00;24.50
74155;DHT22;62509;46.248;6.018;2023-07-31T17:43:03;26.90;25.00
74155;DHT22;62509;46.248;6.018;2023-07-31T17:48:06;26.70;25.40
74155;DHT22;62509;46.248;6.018;2023-07-31T17:53:10;26.60;25.40
74155;DHT22;62509;46.248;6.018;2023-07-31T17:58:15;26.50;25.50
74155;DHT22;62509;46.248;6.018;2023-07-31T18:03:18;26.30;25.70
74155;DHT22;62509;46.248;6.018;2023-07-31T18:08:23;26.30;25.90
74155;DHT22;62509;46.248;6.018;2023-07-31T18:13:28;26.20;26.10
74155;DHT22;62509;46.248;6.018;2023-07-31T18:18:31;26.10;26.50
74155;DHT22;62509;46.248;6.018;2023-07-31T18:23:34;26.00;26.70
74155;DHT22;62509;46.248;6.018;2023-07-31T18:28:39;25.90;26.90
74155;DHT22;62509;46.248;6.018;2023-07-31T18:33:42;25.80;26.80
74155;DHT22;62509;46.248;6.018;2023-07-31T18:38:46;25.70;26.90
74155;DHT22;62509;46.248;6.018;2023-07-31T18:43:50;25.60;27.10
74155;DHT22;62509;46.248;6.018;2023-07-31T18:48:53;25.50;27.70
74155;DHT22;62509;46.248;6.018;2023-07-31T18:53:57;25.30;28.20
74155;DHT22;62509;46.248;6.018;2023-07-31T18:59:02;25.10;28.60
74155;DHT22;62509;46.248;6.018;2023-07-31T19:04:05;25.00;29.20
74155;DHT22;62509;46.248;6.018;2023-07-31T19:09:09;24.90;29.70
74155;DHT22;62509;46.248;6.018;2023-07-31T19:14:15;24.80;30.40
74155;DHT22;62509;46.248;6.018;2023-07-31T19:19:18;24.70;31.30
74155;DHT22;62509;46.248;6.018;2023-07-31T19:24:21;24.50;31.90
74155;DHT22;62509;46.248;6.018;2023-07-31T19:29:33;24.50;32.30
74155;DHT22;62509;46.248;6.018;2023-07-31T19:34:37;24.40;32.30
74155;DHT22;62509;46.248;6.018;2023-07-31T19:39:43;24.30;31.90
74155;DHT22;62509;46.248;6.018;2023-07-31T19:44:47;24.20;31.90
74155;DHT22;62509;46.248;6.018;2023-07-31T19:49:51;24.10;32.10
74155;DHT22;62509;46.248;6.018;2023-07-31T19:54:54;24.10;32.30
74155;DHT22;62509;46.248;6.018;2023-07-31T19:59:59;24.00;32.50
74155;DHT22;62509;46.248;6.018;2023-07-31T20:05:04;23.90;32.80
74155;DHT22;62509;46.248;6.018;2023-07-31T20:10:08;23.90;32.70
74155;DHT22;62509;46.248;6.018;2023-07-31T20:15:19;23.90;32.70
74155;DHT22;62509;46.248;6.018;2023-07-31T20:20:23;23.90;32.40
74155;DHT22;62509;46.248;6.018;2023-07-31T20:25:26;23.90;32.80
74155;DHT22;62509;46.248;6.018;2023-07-31T20:30:31;23.60;33.10
74155;DHT22;62509;46.248;6.018;2023-07-31T20:35:34;23.60;33.70
74155;DHT22;62509;46.248;6.018;2023-07-31T20:40:39;23.60;33.70
74155;DHT22;62509;46.248;6.018;2023-07-31T20:45:43;23.70;33.20
74155;DHT22;62509;46.248;6.018;2023-07-31T20:50:47;23.60;32.50
74155;DHT22;62509;46.248;6.018;2023-07-31T20:55:50;23.60;32.50
74155;DHT22;62509;46.248;6.018;2023-07-31T21:00:55;23.70;32.00
74155;DHT22;62509;46.248;6.018;2023-07-31T21:05:58;23.70;31.30
74155;DHT22;62509;46.248;6.018;2023-07-31T21:11:02;23.70;31.20
74155;DHT22;62509;46.248;6.018;2023-07-31T21:16:06;23.70;31.20
74155;DHT22;62509;46.248;6.018;2023-07-31T21:21:10;23.70;31.30
74155;DHT22;62509;46.248;6.018;2023-07-31T21:26:13;23.70;31.00
74155;DHT22;62509;46.248;6.018;2023-07-31T21:31:18;23.70;31.10
74155;DHT22;62509;46.248;6.018;2023-07-31T21:36:21;23.70;30.70
74155;DHT22;62509;46.248;6.018;2023-07-31T21:41:24;23.60;31.10
74155;DHT22;62509;46.248;6.018;2023-07-31T21:46:29;23.60;31.30
74155;DHT22;62509;46.248;6.018;2023-07-31T21:51:32;23.60;31.30
74155;DHT22;62509;46.248;6.018;2023-07-31T21:56:35;23.50;32.20
74155;DHT22;62509;46.248;6.018;2023-07-31T22:01:40;23.40;32.20
74155;DHT22;62509;46.248;6.018;2023-07-31T22:06:44;23.20;32.90
74155;DHT22;62509;46.248;6.018;2023-07-31T22:11:47;23.10;33.70
74155;DHT22;62509;46.248;6.018;2023-07-31T22:16:53;23.00;34.30
74155;DHT22;62509;46.248;6.018;2023-07-31T22:21:57;23.00;34.40
74155;DHT22;62509;46.248;6.018;2023-07-31T22:27:02;22.90;34.20
74155;DHT22;62509;46.248;6.018;2023-07-31T22:32:07;22.70;35.00
74155;DHT22;62509;46.248;6.018;2023-07-31T22:37:10;22.60;35.30
74155;DHT22;62509;46.248;6.018;2023-07-31T22:42:14;22.40;36.40
74155;DHT22;62509;46.248;6.018;2023-07-31T22:47:18;22.20;37.40
74155;DHT22;62509;46.248;6.018;2023-07-31T22:52:21;22.20;37.00
74155;DHT22;62509;46.248;6.018;2023-07-31T22:57:25;22.20;36.70
74155;DHT22;62509;46.248;6.018;2023-07-31T23:02:29;22.10;37.10
74155;DHT22;62509;46.248;6.018;2023-07-31T23:07:33;22.00;38.10
74155;DHT22;62509;46.248;6.018;2023-07-31T23:12:36;22.00;38.00
74155;DHT22;62509;46.248;6.018;2023-07-31T23:17:40;21.80;38.60
74155;DHT22;62509;46.248;6.018;2023-07-31T23:22:44;21.80;38.90
74155;DHT22;62509;46.248;6.018;2023-07-31T23:27:47;21.60;40.20
74155;DHT22;62509;46.248;6.018;2023-07-31T23:32:52;21.50;40.90
74155;DHT22;62509;46.248;6.018;2023-07-31T23:37:55;21.40;41.20
74155;DHT22;62509;46.248;6.018;2023-07-31T23:42:59;21.30;41.40
74155;DHT22;62509;46.248;6.018;2023-07-31T23:48:03;21.40;39.60
74155;DHT22;62509;46.248;6.018;2023-07-31T23:53:07;21.60;38.30
74155;DHT22;62509;46.248;6.018;2023-07-31T23:58:10;21.70;38.20
